Time;durP1;ratioP1;P1;durP2;ratioP2;P2;SDS_P1;SDS_P2;PMS_P1;PMS_P2;Temp;Humidity;BMP_temperature;BMP_pressure;BME280_temperature;BME280_humidity;BME280_pressure;Samples;Min_cycle;Max_cycle;Signal;HPM_P1;HPM_P2
2021/04/13 00:01:25;;;;;;;6.35;5.75;;;;;;;3.18;36.78;102367.56;4992245;28;98755;-75
2021/04/13 00:04:03;;;;;;;6.53;5.93;;;;;;;3.16;36.62;102369.16;4971640;28;97149;-75
2021/04/13 00:06:32;;;;;;;7.88;6.97;;;;;;;3.16;36.34;102370.06;4996641;28;98039;-75
2021/04/13 00:09:03;;;;;;;7.53;6.70;;;;;;;3.15;35.93;102368.22;4995398;28;99296;-76
2021/04/13 00:11:30;;;;;;;6.90;6.43;;;;;;;3.16;36.28;102364.81;5011267;27;97920;-75
2021/04/13 00:14:00;;;;;;;6.95;6.30;;;;;;;3.15;36.37;102367.28;4993803;28;97669;-75
2021/04/13 00:16:30;;;;;;;7.45;6.90;;;;;;;3.10;36.43;102366.97;4991336;28;97741;-74
2021/04/13 00:18:58;;;;;;;7.00;6.40;;;;;;;3.10;36.40;102368.66;4990229;28;98930;-75
2021/04/13 00:21:28;;;;;;;6.40;6.00;;;;;;;3.08;36.47;102370.25;4993718;28;97028;-75
2021/04/13 00:23:56;;;;;;;7.63;6.07;;;;;;;3.05;36.24;102372.66;4989698;28;96958;-75
2021/04/13 00:26:26;;;;;;;7.75;6.97;;;;;;;3.04;36.02;102363.84;4974268;28;99122;-75
2021/04/13 00:28:53;;;;;;;7.03;6.43;;;;;;;3.05;36.49;102370.03;4990054;28;99092;-76
2021/04/13 00:31:39;;;;;;;6.95;6.45;;;;;;;3.01;36.78;102373.22;4990695;28;97203;-75
2021/04/13 00:34:12;;;;;;;6.82;6.22;;;;;;;3.00;36.15;102367.03;4992218;28;97152;-75
2021/04/13 00:36:40;;;;;;;7.07;6.53;;;;;;;2.98;36.60;102367.75;4993593;28;97989;-75
2021/04/13 00:39:18;;;;;;;6.82;6.32;;;;;;;2.99;36.33;102374.81;5027151;27;100311;-75
2021/04/13 00:42:00;;;;;;;8.07;7.35;;;;;;;3.02;36.85;102367.19;4991020;28;97132;-76
2021/04/13 00:44:30;;;;;;;7.80;7.10;;;;;;;3.00;36.68;102372.31;4991731;28;96925;-76
2021/04/13 00:46:59;;;;;;;8.27;6.88;;;;;;;2.98;36.61;102379.16;4992835;28;98616;-75
2021/04/13 00:49:31;;;;;;;7.80;7.25;;;;;;;2.95;36.86;102373.66;4972823;28;99744;-75
2021/04/13 00:52:01;;;;;;;7.72;7.13;;;;;;;2.94;36.79;102370.94;4992307;28;97337;-76
2021/04/13 00:54:31;;;;;;;7.68;6.95;;;;;;;2.95;35.93;102372.75;4991377;28;96735;-75
2021/04/13 00:57:02;;;;;;;6.85;6.38;;;;;;;2.95;36.58;102370.13;5009150;28;100532;-76
2021/04/13 00:59:30;;;;;;;7.63;7.03;;;;;;;2.95;36.42;102378.94;4991790;28;97773;-76
2021/04/13 01:01:59;;;;;;;7.18;6.68;;;;;;;3.00;36.01;102374.03;4990344;28;97981;-75
2021/04/13 01:04:50;;;;;;;6.20;5.80;;;;;;;2.99;36.74;102381.00;4993931;28;96979;-75
2021/04/13 01:07:20;;;;;;;7.93;7.25;;;;;;;3.01;35.94;102378.50;4990393;28;98615;-76
2021/04/13 01:09:48;;;;;;;7.03;6.43;;;;;;;2.99;36.00;102372.19;4995779;28;97519;-75
2021/04/13 01:12:20;;;;;;;8.05;6.75;;;;;;;2.96;36.79;102370.25;4991909;28;97296;-76
2021/04/13 01:14:47;;;;;;;7.72;7.03;;;;;;;2.96;36.65;102364.09;4991118;28;97430;-76
2021/04/13 01:17:15;;;;;;;7.43;6.80;;;;;;;2.91;36.70;102368.06;4986829;28;99361;-75
2021/04/13 01:19:51;;;;;;;7.65;6.95;;;;;;;2.89;36.60;102367.03;4989779;28;97614;-76
2021/04/13 01:22:26;;;;;;;7.80;7.10;;;;;;;2.85;36.27;102371.16;4993463;28;97656;-77
2021/04/13 01:24:58;;;;;;;8.20;7.40;;;;;;;2.81;36.62;102361.19;4994662;28;97292;-75
2021/04/13 01:27:25;;;;;;;7.47;6.97;;;;;;;2.81;36.40;102370.78;4988764;28;98981;-76
2021/04/13 01:29:53;;;;;;;7.55;6.90;;;;;;;2.77;35.95;102377.50;4991518;28;97677;-76
2021/04/13 01:32:22;;;;;;;8.90;8.13;;;;;;;2.73;36.66;102377.19;4994257;28;97045;-76
2021/04/13 01:35:01;;;;;;;8.05;7.43;;;;;;;2.72;37.38;102381.50;4992449;28;97023;-75
2021/04/13 01:37:37;;;;;;;8.07;7.38;;;;;;;2.73;36.73;102371.91;4993797;28;100152;-76
2021/04/13 01:40:17;;;;;;;8.20;6.65;;;;;;;2.72;36.78;102377.94;4992533;28;98714;-76
2021/04/13 01:42:46;;;;;;;8.35;7.43;;;;;;;2.70;36.27;102374.28;4997072;28;97028;-76
2021/04/13 01:45:14;;;;;;;6.85;6.32;;;;;;;2.69;36.85;102373.34;4991761;28;97516;-76
2021/04/13 01:47:42;;;;;;;7.80;7.13;;;;;;;2.68;36.82;102373.25;4992055;28;97267;-76
2021/04/13 01:50:16;;;;;;;8.40;7.70;;;;;;;2.62;37.19;102365.78;4988892;28;100613;-77
2021/04/13 01:52:45;;;;;;;8.05;7.35;;;;;;;2.63;36.68;102365.03;4976494;28;97078;-77
2021/04/13 01:55:16;;;;;;;8.48;6.82;;;;;;;2.62;36.67;102373.69;4991828;28;96807;-77
2021/04/13 01:57:50;;;;;;;7.43;6.68;;;;;;;2.61;36.52;102369.22;5002970;28;100428;-76
2021/04/13 02:00:25;;;;;;;10.32;8.50;;;;;;;2.66;37.72;102378.38;4988650;28;98990;-76
2021/04/13 02:02:53;;;;;;;8.18;7.38;;;;;;;2.65;36.86;102375.66;4987722;28;97005;-75
2021/04/13 02:05:25;;;;;;;8.98;7.53;;;;;;;2.61;37.20;102378.81;4972331;28;96932;-76
2021/04/13 02:07:58;;;;;;;7.47;6.90;;;;;;;2.58;37.12;102368.09;4988033;28;100323;-76
2021/04/13 02:10:32;;;;;;;8.18;7.47;;;;;;;2.55;36.88;102374.00;4989371;28;99800;-76
2021/04/13 02:13:02;;;;;;;8.55;7.72;;;;;;;2.53;36.97;102372.06;4991695;28;97600;-75
2021/04/13 02:15:37;;;;;;;7.57;6.88;;;;;;;2.56;36.77;102370.59;4988735;28;96876;-75
2021/04/13 02:18:09;;;;;;;8.73;7.07;;;;;;;2.55;37.34;102374.00;4988132;28;98538;-76
2021/04/13 02:20:43;;;;;;;7.47;6.88;;;;;;;2.55;37.13;102376.63;4990620;28;99224;-75
2021/04/13 02:23:10;;;;;;;8.40;7.70;;;;;;;2.53;36.73;102379.97;4990584;28;97077;-75
2021/04/13 02:25:39;;;;;;;8.50;7.63;;;;;;;2.52;36.62;102383.34;4993350;28;97025;-76
2021/04/13 02:28:06;;;;;;;10.10;7.88;;;;;;;2.47;37.60;102384.72;4984645;28;99403;-76
2021/04/13 02:30:36;;;;;;;8.45;7.63;;;;;;;2.40;37.34;102383.28;4989796;28;100383;-76
2021/04/13 02:33:10;;;;;;;8.70;7.90;;;;;;;2.36;37.04;102397.00;4988463;28;97392;-76
2021/04/13 02:35:39;;;;;;;8.73;7.88;;;;;;;2.33;37.60;102394.13;4991201;28;97776;-75
2021/04/13 02:38:11;;;;;;;8.80;7.28;;;;;;;2.30;37.38;102385.06;4990508;28;97756;-75
2021/04/13 02:40:46;;;;;;;9.27;8.25;;;;;;;2.30;37.59;102390.31;4988322;28;100889;-76
2021/04/13 02:43:18;;;;;;;8.23;7.45;;;;;;;2.27;37.44;102390.09;4991739;28;97521;-76
2021/04/13 02:45:47;;;;;;;8.77;8.02;;;;;;;2.24;36.92;102387.25;4992925;28;97237;-76
2021/04/13 02:48:17;;;;;;;8.98;8.18;;;;;;;2.24;36.75;102389.88;4990464;28;99176;-76
2021/04/13 02:50:48;;;;;;;9.80;8.73;;;;;;;2.25;36.99;102395.22;4975244;28;100729;-76
2021/04/13 02:53:16;;;;;;;8.80;7.88;;;;;;;2.26;37.04;102391.81;4990485;28;96905;-77
2021/04/13 02:55:49;;;;;;;9.45;8.23;;;;;;;2.27;36.92;102390.09;4990252;28;96864;-75
2021/04/13 02:58:18;;;;;;;9.65;8.65;;;;;;;2.27;37.29;102391.03;4987132;28;97854;-75
2021/04/13 03:00:47;;;;;;;10.13;8.60;;;;;;;2.28;37.24;102391.91;4989857;28;98825;-75
2021/04/13 03:03:17;;;;;;;9.18;8.23;;;;;;;2.27;36.89;102387.47;4990268;28;96851;-75
2021/04/13 03:05:50;;;;;;;14.45;11.40;;;;;;;2.29;37.33;102384.19;5023657;27;97294;-75
2021/04/13 03:08:18;;;;;;;9.30;8.32;;;;;;;2.29;37.95;102397.31;5026927;27;100930;-76
2021/04/13 03:10:47;;;;;;;11.48;9.07;;;;;;;2.27;37.85;102391.03;5027033;27;99416;-76
2021/04/13 03:13:16;;;;;;;9.07;8.18;;;;;;;2.27;37.10;102390.09;4999299;28;96817;-75
2021/04/13 03:15:50;;;;;;;9.60;8.60;;;;;;;2.29;37.75;102399.03;5001127;28;97678;-75
2021/04/13 03:18:19;;;;;;;9.52;8.52;;;;;;;2.30;37.89;102395.59;5012031;28;100975;-75
2021/04/13 03:20:50;;;;;;;9.10;8.18;;;;;;;2.29;37.71;102399.03;4985383;28;98966;-74
2021/04/13 03:23:18;;;;;;;11.20;8.98;;;;;;;2.29;37.83;102399.03;4994369;28;96935;-74
2021/04/13 03:25:50;;;;;;;10.30;8.60;;;;;;;2.30;37.25;102398.22;4998740;28;97655;-75
2021/04/13 03:28:21;;;;;;;10.35;8.93;;;;;;;2.25;37.42;102397.84;4994905;28;101126;-74
2021/04/13 03:30:48;;;;;;;10.13;9.05;;;;;;;2.26;36.99;102393.50;4995691;28;100963;-74
2021/04/13 03:33:17;;;;;;;12.13;9.60;;;;;;;2.25;37.84;102396.94;4981239;28;96845;-75
2021/04/13 03:35:44;;;;;;;10.23;9.23;;;;;;;2.26;37.07;102399.69;4992214;28;97269;-76
2021/04/13 03:38:15;;;;;;;12.90;10.30;;;;;;;2.18;37.39;102408.66;4990808;28;99307;-77
2021/04/13 03:40:44;;;;;;;10.40;8.93;;;;;;;2.10;37.36;102408.06;4991525;28;97889;-76
2021/04/13 03:43:13;;;;;;;10.20;9.20;;;;;;;2.07;37.59;102402.50;4974291;28;96946;-74
2021/04/13 03:45:42;;;;;;;10.75;9.65;;;;;;;2.07;37.62;102407.75;4991951;28;97607;-75
2021/04/13 03:48:19;;;;;;;12.93;10.40;;;;;;;2.01;37.89;102396.78;4991576;28;96977;-75
2021/04/13 03:50:47;;;;;;;11.88;10.20;;;;;;;1.94;38.04;102406.66;4992078;28;98403;-75
2021/04/13 03:53:16;;;;;;;11.40;9.00;;;;;;;1.93;37.59;102407.41;4993412;28;97190;-73
2021/04/13 03:55:56;;;;;;;11.32;9.40;;;;;;;1.90;38.42;102408.09;4990000;28;97414;-75
2021/04/13 03:58:25;;;;;;;12.77;9.80;;;;;;;1.85;37.75;102417.28;5004092;28;99683;-75
2021/04/13 04:00:53;;;;;;;11.27;9.23;;;;;;;1.81;37.81;102409.06;4991339;28;99274;-75
2021/04/13 04:03:20;;;;;;;12.85;10.02;;;;;;;1.79;37.88;102406.31;4991499;28;97332;-73
2021/04/13 04:05:49;;;;;;;10.38;9.27;;;;;;;1.80;37.78;102404.56;4991966;28;97581;-76
2021/04/13 04:08:22;;;;;;;11.63;9.82;;;;;;;1.78;37.86;102404.44;4990890;28;98767;-76
2021/04/13 04:10:51;;;;;;;15.23;10.70;;;;;;;1.78;37.80;102407.06;4989716;28;99110;-75
2021/04/13 04:13:25;;;;;;;10.77;9.40;;;;;;;1.79;38.22;102401.06;4993156;28;97649;-76
2021/04/13 04:16:03;;;;;;;14.40;10.30;;;;;;;1.80;38.75;102402.88;4988466;28;97801;-76
2021/04/13 04:18:32;;;;;;;11.25;9.98;;;;;;;1.82;38.24;102403.00;4995827;28;99548;-75
2021/04/13 04:21:01;;;;;;;12.25;10.18;;;;;;;1.81;38.16;102409.97;5001901;28;98826;-76
2021/04/13 04:23:31;;;;;;;9.73;8.73;;;;;;;1.82;38.39;102410.88;4990922;28;97597;-75
2021/04/13 04:26:00;;;;;;;12.73;9.77;;;;;;;1.81;38.41;102406.44;4990881;28;96827;-75
2021/04/13 04:28:31;;;;;;;11.18;9.55;;;;;;;1.76;37.97;102408.66;4990709;28;99045;-75
2021/04/13 04:31:35;;;;;;;10.98;9.60;;;;;;;1.79;38.92;102414.19;4990646;28;100677;-75
2021/04/13 04:34:38;;;;;;;12.40;9.60;;;;;;;1.78;39.03;102427.19;4974185;28;96918;-75
2021/04/13 04:37:14;;;;;;;12.75;9.50;;;;;;;1.79;38.29;102423.75;4993810;28;97385;-75
2021/04/13 04:39:42;;;;;;;13.52;10.18;;;;;;;1.74;37.96;102423.41;4990785;28;99684;-75
2021/04/13 04:42:37;;;;;;;14.60;10.77;;;;;;;1.72;39.00;102424.97;4991994;28;98106;-75
2021/04/13 04:45:17;;;;;;;12.48;10.82;;;;;;;1.65;38.50;102422.59;5012538;28;97278;-76
2021/04/13 04:47:46;;;;;;;11.50;10.02;;;;;;;1.64;38.59;102423.41;5000189;28;97094;-75
2021/04/13 04:50:15;;;;;;;10.85;9.73;;;;;;;1.69;37.93;102426.44;4997753;28;97603;-76
2021/04/13 04:52:43;;;;;;;10.93;9.85;;;;;;;1.66;38.37;102436.66;4998730;28;98039;-75
2021/04/13 04:55:13;;;;;;;12.57;10.60;;;;;;;1.65;38.37;102427.84;4996461;28;96822;-76
2021/04/13 04:57:40;;;;;;;12.00;10.55;;;;;;;1.64;38.26;102436.53;4995630;28;96988;-75
2021/04/13 05:00:09;;;;;;;11.88;9.80;;;;;;;1.70;38.06;102439.66;4990734;28;98119;-75
2021/04/13 05:02:36;;;;;;;10.70;9.38;;;;;;;1.65;38.11;102440.97;4992621;28;99546;-75
2021/04/13 05:05:04;;;;;;;12.02;9.88;;;;;;;1.66;38.10;102447.13;4992672;28;97562;-76
2021/04/13 05:07:31;;;;;;;12.38;9.45;;;;;;;1.63;38.64;102441.66;4988727;28;98041;-76
2021/04/13 05:09:58;;;;;;;13.75;10.98;;;;;;;1.64;38.36;102444.41;5008098;28;99640;-76
2021/04/13 05:12:25;;;;;;;11.55;9.88;;;;;;;1.66;38.60;102447.13;4992138;28;98660;-75
2021/04/13 05:14:52;;;;;;;12.55;10.00;;;;;;;1.66;38.55;102448.06;5008687;27;96840;-76
2021/04/13 05:17:19;;;;;;;13.30;10.23;;;;;;;1.64;38.33;102447.03;5006201;28;98186;-76
2021/04/13 05:19:46;;;;;;;11.95;10.20;;;;;;;1.64;38.27;102453.97;4990062;28;99459;-76
2021/04/13 05:22:12;;;;;;;12.02;10.30;;;;;;;1.64;38.25;102461.84;4987493;28;99590;-76
2021/04/13 05:24:39;;;;;;;12.18;9.98;;;;;;;1.59;38.41;102455.28;4991406;28;97271;-76
2021/04/13 05:27:06;;;;;;;11.82;9.73;;;;;;;1.57;38.77;102462.13;4989268;28;97416;-76
2021/04/13 05:29:34;;;;;;;10.85;9.57;;;;;;;1.58;38.29;102457.00;4991047;28;98286;-76
2021/04/13 05:32:02;;;;;;;11.57;9.63;;;;;;;1.62;38.41;102476.53;4988824;28;97655;-76
2021/04/13 05:34:28;;;;;;;11.52;9.65;;;;;;;1.63;38.48;102474.06;4989750;28;97423;-76
2021/04/13 05:36:56;;;;;;;11.65;9.90;;;;;;;1.63;38.10;102473.13;4987892;28;96692;-76
2021/04/13 05:39:23;;;;;;;12.25;10.02;;;;;;;1.66;38.40;102466.44;4970607;28;100672;-76
2021/04/13 05:41:51;;;;;;;11.40;9.48;;;;;;;1.72;38.82;102469.59;4990880;28;97627;-75
2021/04/13 05:44:20;;;;;;;12.18;9.77;;;;;;;1.77;38.94;102463.00;5003130;28;97175;-76
2021/04/13 05:46:48;;;;;;;14.60;10.13;;;;;;;1.83;38.82;102479.28;4996372;28;96922;-75
2021/04/13 05:49:15;;;;;;;12.18;9.27;;;;;;;1.87;38.36;102465.56;4996842;28;98729;-77
2021/04/13 05:51:42;;;;;;;11.32;9.38;;;;;;;1.93;38.27;102473.03;4993923;28;97657;-77
2021/04/13 05:54:09;;;;;;;11.02;9.02;;;;;;;1.97;38.42;102478.69;4994236;28;97299;-76
2021/04/13 05:56:38;;;;;;;11.20;9.48;;;;;;;2.04;38.43;102473.16;4993327;28;97101;-75
2021/04/13 05:59:08;;;;;;;11.40;9.55;;;;;;;2.08;38.39;102479.56;5008739;28;99727;-75
2021/04/13 06:01:35;;;;;;;13.85;9.27;;;;;;;2.08;38.16;102477.88;4995304;28;99444;-76
2021/04/13 06:04:04;;;;;;;12.52;10.05;;;;;;;2.10;37.91;102478.94;4987363;28;97179;-77
2021/04/13 06:06:31;;;;;;;12.43;9.63;;;;;;;2.15;37.98;102474.06;4989616;28;98179;-76
2021/04/13 06:08:58;;;;;;;12.32;9.23;;;;;;;2.19;38.48;102477.06;4989357;28;99212;-77
2021/04/13 06:11:27;;;;;;;10.90;8.93;;;;;;;2.24;37.92;102479.16;4980610;28;100408;-77
2021/04/13 06:13:55;;;;;;;10.48;9.05;;;;;;;2.29;37.80;102484.00;4988769;28;97246;-76
2021/04/13 06:16:23;;;;;;;9.95;8.55;;;;;;;2.34;37.68;102485.28;4992874;28;97008;-77
2021/04/13 06:18:50;;;;;;;13.02;10.10;;;;;;;2.37;38.18;102476.72;4995168;28;97654;-76
2021/04/13 06:21:18;;;;;;;14.65;9.27;;;;;;;2.38;37.57;102483.81;4990549;28;100954;-76
2021/04/13 06:23:45;;;;;;;12.38;9.05;;;;;;;2.42;37.72;102483.28;4994657;28;96893;-77
2021/04/13 06:26:12;;;;;;;12.15;9.88;;;;;;;2.46;37.92;102491.50;4990559;28;97615;-75
2021/04/13 06:28:39;;;;;;;11.68;8.32;;;;;;;2.53;37.57;102490.31;4997954;28;99209;-75
2021/04/13 06:31:05;;;;;;;10.35;8.35;;;;;;;2.52;38.07;102489.38;4992152;28;97671;-75
2021/04/13 06:33:32;;;;;;;8.90;8.02;;;;;;;2.56;38.58;102490.53;4990187;28;96815;-76
2021/04/13 06:36:02;;;;;;;13.13;9.13;;;;;;;2.65;37.86;102496.53;4987877;28;97000;-75
2021/04/13 06:38:30;;;;;;;9.02;8.10;;;;;;;2.69;37.67;102490.75;4988782;28;97945;-75
2021/04/13 06:41:29;;;;;;;9.68;8.02;;;;;;;2.70;39.00;102487.31;5024238;27;99854;-75
2021/04/13 06:44:15;;;;;;;9.65;8.48;;;;;;;2.77;39.24;102494.88;4976900;28;97227;-76
2021/04/13 06:46:48;;;;;;;12.60;8.88;;;;;;;2.82;37.95;102496.19;4987600;28;96841;-74
2021/04/13 06:49:38;;;;;;;13.27;8.85;;;;;;;2.87;38.88;102510.59;4992066;28;97645;-75
2021/04/13 06:52:10;;;;;;;10.98;8.35;;;;;;;2.86;38.25;102503.50;4991603;28;99362;-76
2021/04/13 06:54:44;;;;;;;9.07;8.10;;;;;;;2.92;38.18;102506.63;4973749;28;97405;-76
2021/04/13 06:57:33;;;;;;;11.80;7.82;;;;;;;2.94;38.42;102498.06;4976106;28;97945;-76
2021/04/13 07:00:15;;;;;;;10.00;8.48;;;;;;;3.06;37.68;102505.97;4987869;28;99280;-76
2021/04/13 07:02:50;;;;;;;10.80;8.63;;;;;;;3.15;38.00;102501.44;4989518;28;101082;-76
2021/04/13 07:05:19;;;;;;;11.57;8.90;;;;;;;3.23;37.67;102513.50;4995356;28;96788;-76
2021/04/13 07:07:51;;;;;;;13.98;9.48;;;;;;;3.24;37.28;102507.41;4990171;28;97112;-76
2021/04/13 07:10:23;;;;;;;10.57;9.13;;;;;;;3.22;37.66;102509.03;4990221;28;98011;-76
2021/04/13 07:12:55;;;;;;;12.32;9.18;;;;;;;3.22;38.05;102502.03;4988378;28;97719;-76
2021/04/13 07:15:26;;;;;;;10.85;8.65;;;;;;;3.28;37.91;102505.97;4987351;28;96887;-76
2021/04/13 07:17:57;;;;;;;11.05;8.50;;;;;;;3.32;38.42;102503.69;4989460;28;96979;-76
2021/04/13 07:20:27;;;;;;;9.35;8.32;;;;;;;3.35;37.75;102514.44;4988192;28;100936;-76
2021/04/13 07:22:56;;;;;;;10.88;8.98;;;;;;;3.37;37.63;102510.22;4993583;28;97272;-77
2021/04/13 07:25:26;;;;;;;16.25;9.75;;;;;;;3.39;37.72;102505.06;4998974;28;98085;-76
2021/04/13 07:27:57;;;;;;;9.27;8.18;;;;;;;3.38;37.67;102503.25;4971502;28;96912;-75
2021/04/13 07:30:28;;;;;;;10.90;9.02;;;;;;;3.43;38.07;102502.81;4988517;28;99359;-76
2021/04/13 07:32:55;;;;;;;12.23;8.82;;;;;;;3.50;37.79;102505.09;4994534;28;97166;-75
2021/04/13 07:35:23;;;;;;;9.98;8.98;;;;;;;3.59;37.91;102511.06;4990672;28;97215;-76
2021/04/13 07:37:51;;;;;;;11.52;9.15;;;;;;;3.69;37.28;102510.09;5006914;28;96930;-76
2021/04/13 07:40:22;;;;;;;13.77;8.82;;;;;;;3.79;37.77;102507.34;5000694;28;97763;-75
2021/04/13 07:42:59;;;;;;;11.43;8.68;;;;;;;3.86;38.30;102510.56;4993130;28;98916;-74
2021/04/13 07:45:32;;;;;;;11.73;8.60;;;;;;;3.94;37.56;102509.44;4991644;28;97021;-75
2021/04/13 07:48:13;;;;;;;11.32;9.30;;;;;;;4.06;37.50;102510.34;4997741;28;97273;-75
2021/04/13 07:50:51;;;;;;;11.27;8.45;;;;;;;4.10;37.95;102524.66;4992028;28;98872;-75
2021/04/13 07:53:25;;;;;;;12.35;9.27;;;;;;;4.16;37.34;102519.84;4994373;28;97590;-76
2021/04/13 07:55:56;;;;;;;9.45;8.43;;;;;;;4.19;37.27;102521.00;4968952;28;97537;-76
2021/04/13 07:58:37;;;;;;;8.90;7.95;;;;;;;4.23;37.98;102506.31;4974792;28;97811;-76
2021/04/13 08:01:06;;;;;;;12.00;8.35;;;;;;;4.27;37.45;102505.75;4995279;28;101333;-77
2021/04/13 08:03:34;;;;;;;8.75;7.80;;;;;;;4.39;37.18;102508.38;4996777;28;97704;-75
2021/04/13 08:06:03;;;;;;;10.52;7.47;;;;;;;4.44;37.22;102501.72;4992326;28;98708;-76
2021/04/13 08:08:33;;;;;;;9.65;8.20;;;;;;;4.54;36.98;102506.84;4994995;28;97412;-75
2021/04/13 08:11:10;;;;;;;8.90;7.95;;;;;;;4.64;37.23;102512.00;4992700;28;97925;-75
2021/04/13 08:13:39;;;;;;;9.13;7.07;;;;;;;4.67;37.00;102506.94;4973637;28;99572;-74
2021/04/13 08:16:06;;;;;;;9.10;6.95;;;;;;;4.75;36.64;102500.50;4992070;28;97706;-75
2021/04/13 08:18:37;;;;;;;10.98;6.22;;;;;;;4.80;36.77;102500.03;4991338;28;97922;-75
2021/04/13 08:21:21;;;;;;;8.57;6.63;;;;;;;4.84;37.45;102501.16;4991659;28;99298;-76
2021/04/13 08:23:50;;;;;;;7.15;6.45;;;;;;;4.87;36.99;102509.28;5016099;28;100388;-76
2021/04/13 08:26:33;;;;;;;8.85;6.78;;;;;;;4.95;37.09;102510.75;4998643;28;97723;-76
2021/04/13 08:29:07;;;;;;;10.10;6.30;;;;;;;4.99;36.88;102512.81;5029746;27;96896;-75
2021/04/13 08:34:34;;;;;;;5.72;5.32;;;;;;;5.01;36.45;102519.13;5006606;28;99552;-76
2021/04/13 08:37:10;;;;;;;6.22;5.45;;;;;;;4.98;36.71;102505.69;5013191;27;96950;-76
2021/04/13 08:39:42;;;;;;;10.85;7.03;;;;;;;4.95;36.89;102510.75;4999571;28;97024;-76
2021/04/13 08:42:18;;;;;;;6.20;5.60;;;;;;;4.99;36.99;102515.44;4980048;28;100908;-76
2021/04/13 08:44:49;;;;;;;5.93;5.32;;;;;;;5.07;37.02;102514.28;4989276;28;100423;-75
2021/04/13 08:47:22;;;;;;;6.68;5.53;;;;;;;5.13;36.65;102510.38;4997457;28;97664;-75
2021/04/13 08:49:53;;;;;;;10.47;6.70;;;;;;;5.15;36.99;102513.13;4991243;28;97705;-76
2021/04/13 08:52:39;;;;;;;7.68;5.43;;;;;;;5.31;36.91;102520.38;4993866;28;99285;-77
2021/04/13 08:55:11;;;;;;;6.72;5.20;;;;;;;5.36;36.75;102509.31;4993844;28;99857;-76
2021/04/13 08:57:40;;;;;;;8.27;5.35;;;;;;;5.44;36.60;102515.13;4994415;28;96913;-76
2021/04/13 09:00:31;;;;;;;6.68;5.28;;;;;;;5.50;36.43;102510.28;5010935;27;97002;-76
2021/04/13 09:02:59;;;;;;;8.00;4.72;;;;;;;5.55;36.29;102517.72;4984528;28;97512;-77
2021/04/13 09:05:30;;;;;;;6.85;5.50;;;;;;;5.61;36.22;102507.56;4996899;28;98701;-76
2021/04/13 09:07:59;;;;;;;9.13;5.32;;;;;;;5.63;36.27;102505.94;4991815;28;97316;-76
2021/04/13 09:10:31;;;;;;;12.05;5.35;;;;;;;5.66;36.20;102506.16;4987638;28;97629;-76
2021/04/13 09:13:15;;;;;;;5.60;5.20;;;;;;;5.65;35.73;102506.97;4996210;28;97407;-76
2021/04/13 09:15:52;;;;;;;6.43;5.00;;;;;;;5.69;35.76;102497.53;5001526;28;100487;-76
2021/04/13 09:18:49;;;;;;;6.22;5.60;;;;;;;5.65;35.75;102501.69;4992831;28;96825;-75
2021/04/13 09:21:43;;;;;;;10.50;5.97;;;;;;;5.68;35.93;102501.00;4987754;28;96767;-76
2021/04/13 09:24:15;;;;;;;6.97;6.25;;;;;;;5.76;35.92;102495.41;4991977;28;98699;-75
2021/04/13 09:26:46;;;;;;;6.78;5.07;;;;;;;5.88;35.64;102500.59;4999679;28;97826;-76
2021/04/13 09:29:31;;;;;;;10.00;5.90;;;;;;;5.94;35.63;102501.03;5011810;28;97320;-76
2021/04/13 09:32:00;;;;;;;7.72;5.65;;;;;;;5.83;35.86;102492.34;5000897;28;96693;-76
2021/04/13 09:34:37;;;;;;;7.30;4.85;;;;;;;5.83;35.74;102492.34;5025361;27;100638;-76
2021/04/13 09:37:15;;;;;;;5.40;4.38;;;;;;;5.88;35.63;102480.41;4978935;28;99214;-75
2021/04/13 09:39:55;;;;;;;6.15;4.60;;;;;;;5.93;35.48;102493.91;5025432;27;97814;-76
2021/04/13 09:43:04;;;;;;;5.38;4.88;;;;;;;5.91;35.13;102501.72;4991437;28;96910;-77
2021/04/13 09:45:42;;;;;;;6.15;4.40;;;;;;;5.92;35.23;102492.97;4975373;28;96912;-76
2021/04/13 09:48:28;;;;;;;6.10;4.80;;;;;;;6.02;34.98;102490.16;4998086;28;98786;-77
2021/04/13 09:51:04;;;;;;;5.70;4.90;;;;;;;6.07;35.11;102488.72;4995845;28;97708;-75
2021/04/13 09:53:43;;;;;;;6.30;5.03;;;;;;;6.14;34.83;102496.22;4991460;28;97481;-76
2021/04/13 09:56:26;;;;;;;4.75;4.30;;;;;;;6.24;34.68;102488.13;4991530;28;99573;-77
2021/04/13 09:59:08;;;;;;;6.03;4.95;;;;;;;6.30;34.58;102482.34;4993863;28;98376;-76
2021/04/13 10:02:06;;;;;;;6.80;4.82;;;;;;;6.44;35.15;102475.28;4989973;28;96833;-76
2021/04/13 10:04:52;;;;;;;7.25;5.00;;;;;;;6.53;34.27;102478.53;5028935;27;96862;-75
2021/04/13 10:07:27;;;;;;;6.43;5.13;;;;;;;6.57;34.45;102477.91;5002473;28;98416;-76
2021/04/13 10:09:56;;;;;;;4.97;4.32;;;;;;;6.58;34.82;102469.19;4988986;28;97055;-76
2021/04/13 10:12:53;;;;;;;5.10;4.60;;;;;;;6.60;33.55;102467.53;4992975;28;97097;-76
2021/04/13 10:15:49;;;;;;;7.03;4.45;;;;;;;6.66;33.58;102471.50;4990359;28;96898;-76
2021/04/13 10:18:55;;;;;;;13.77;4.45;;;;;;;6.66;33.75;102473.22;4989090;28;99824;-76
2021/04/13 10:21:52;;;;;;;6.60;4.35;;;;;;;6.67;34.44;102480.34;4988578;28;97851;-77
2021/04/13 10:24:47;;;;;;;5.30;4.35;;;;;;;6.52;33.31;102475.00;4977466;28;98727;-76
2021/04/13 10:27:44;;;;;;;6.15;4.80;;;;;;;6.53;34.54;102481.19;4987556;28;96919;-77
2021/04/13 10:30:22;;;;;;;4.70;4.32;;;;;;;6.49;34.33;102479.19;4992512;28;98919;-76
2021/04/13 10:33:27;;;;;;;5.80;4.65;;;;;;;6.58;33.65;102478.00;4976275;28;98424;-76
2021/04/13 10:36:22;;;;;;;5.50;4.78;;;;;;;6.72;33.86;102476.25;4940528;28;97207;-76
2021/04/13 10:39:01;;;;;;;5.82;4.53;;;;;;;6.81;33.99;102474.19;4990021;28;98030;-76
2021/04/13 10:42:00;;;;;;;12.10;8.20;;;;;;;6.90;33.82;102472.13;4972233;28;100622;-76
2021/04/13 10:44:43;;;;;;;5.10;4.32;;;;;;;6.93;33.56;102467.94;5004301;28;100429;-77
2021/04/13 10:47:35;;;;;;;4.93;4.35;;;;;;;6.99;33.69;102467.41;4989413;28;97877;-77
2021/04/13 10:50:18;;;;;;;6.43;4.63;;;;;;;7.06;33.57;102477.56;4987984;28;97256;-77
2021/04/13 10:53:16;;;;;;;5.53;4.00;;;;;;;7.12;33.24;102455.03;5002427;28;100575;-77
2021/04/13 10:55:55;;;;;;;3.60;3.33;;;;;;;7.26;33.02;102455.88;4990854;28;97902;-77
2021/04/13 10:58:58;;;;;;;7.07;3.45;;;;;;;7.25;32.36;102454.06;5000020;28;97610;-77
2021/04/13 11:01:59;;;;;;;4.45;3.92;;;;;;;7.27;31.48;102457.72;4993414;28;96980;-77
2021/04/13 11:05:27;;;;;;;4.07;3.75;;;;;;;7.24;31.32;102447.84;4988808;28;100935;-78
2021/04/13 11:08:28;;;;;;;4.30;3.92;;;;;;;7.28;32.05;102451.56;4964508;28;97559;-77
2021/04/13 11:11:13;;;;;;;4.10;3.88;;;;;;;7.30;33.15;102446.38;4987322;28;96984;-76
2021/04/13 11:13:58;;;;;;;18.05;10.30;;;;;;;7.41;32.60;102443.59;4995006;28;97123;-77
2021/04/13 11:16:55;;;;;;;7.38;4.85;;;;;;;7.52;32.40;102445.16;5023607;27;98030;-77
2021/04/13 11:19:25;;;;;;;3.95;3.53;;;;;;;7.58;32.94;102449.91;4971491;28;99370;-77
2021/04/13 11:22:19;;;;;;;3.53;3.17;;;;;;;7.55;31.24;102444.41;4991839;28;97622;-76
2021/04/13 11:25:09;;;;;;;4.05;2.92;;;;;;;7.47;30.51;102451.00;4931505;28;97260;-77
2021/04/13 11:27:58;;;;;;;3.78;3.08;;;;;;;7.55;31.12;102452.34;4989593;28;98259;-76
2021/04/13 11:31:03;;;;;;;3.20;3.00;;;;;;;7.43;30.11;102444.59;4990502;28;97953;-76
2021/04/13 11:33:57;;;;;;;7.28;3.17;;;;;;;7.47;31.43;102448.34;4993688;28;96811;-77
2021/04/13 11:36:37;;;;;;;3.97;3.58;;;;;;;7.56;31.79;102441.88;4989682;28;98037;-76
2021/04/13 11:39:16;;;;;;;3.78;3.47;;;;;;;7.65;32.42;102442.41;4995163;28;98821;-76
2021/04/13 11:42:05;;;;;;;4.07;3.15;;;;;;;7.64;30.86;102435.28;4994660;28;99676;-75
2021/04/13 11:44:39;;;;;;;3.97;3.13;;;;;;;7.66;31.70;102449.53;4995743;28;97430;-76
2021/04/13 11:47:12;;;;;;;3.00;2.80;;;;;;;7.54;30.42;102432.91;4993983;28;97731;-75
2021/04/13 11:49:44;;;;;;;5.55;3.45;;;;;;;7.56;31.16;102435.66;4994090;28;97078;-76
2021/04/13 11:52:19;;;;;;;3.83;3.38;;;;;;;7.64;31.04;102422.03;4991918;28;100528;-76
2021/04/13 11:54:49;;;;;;;6.10;2.85;;;;;;;7.79;31.39;102406.09;4989574;28;98440;-75
2021/04/13 11:57:19;;;;;;;3.38;2.85;;;;;;;8.02;31.38;102408.38;4991363;28;97011;-75
2021/04/13 12:00:19;;;;;;;2.92;2.80;;;;;;;8.22;30.08;102411.31;4973269;28;98107;-75
2021/04/13 12:02:47;;;;;;;3.17;2.95;;;;;;;8.34;31.08;102420.78;4996612;28;99761;-77
2021/04/13 12:05:26;;;;;;;2.90;2.65;;;;;;;8.45;29.53;102414.34;4991431;28;96777;-75
2021/04/13 12:07:53;;;;;;;2.88;2.72;;;;;;;8.54;30.84;102422.84;4992345;28;96977;-74